Time;durP1;ratioP1;P1;durP2;ratioP2;P2;SDS_P1;SDS_P2;PMS_P1;PMS_P2;Temp;Humidity;BMP_temperature;BMP_pressure;BME280_temperature;BME280_humidity;BME280_pressure;Samples;Min_cycle;Max_cycle;Signal;HPM_P1;HPM_P2
2021/07/08 00:02:03;;;;;;;10.70;8.53;;;;;;;15.89;100.00;101745.59;1970806;72;32998;-73
2021/07/08 00:07:27;;;;;;;9.63;8.23;;;;;;;15.92;100.00;101738.82;1970553;73;32898;-75
2021/07/08 00:12:51;;;;;;;10.07;7.90;;;;;;;15.96;100.00;101745.25;1970688;73;33378;-74
2021/07/08 00:18:17;;;;;;;9.27;7.43;;;;;;;15.98;100.00;101743.80;1970731;73;31571;-75
2021/07/08 00:23:42;;;;;;;10.13;8.07;;;;;;;16.07;100.00;101749.58;1970760;72;33515;-74
2021/07/08 00:29:07;;;;;;;8.97;7.57;;;;;;;16.11;100.00;101736.62;1970849;72;30966;-74
2021/07/08 00:34:31;;;;;;;9.53;8.00;;;;;;;16.17;100.00;101737.64;1970563;73;31075;-74
2021/07/08 00:39:55;;;;;;;9.67;7.67;;;;;;;16.19;100.00;101731.19;1970697;72;32961;-74
2021/07/08 00:45:22;;;;;;;11.70;8.13;;;;;;;16.16;100.00;101730.39;1970738;73;33398;-74
2021/07/08 00:50:47;;;;;;;10.67;8.03;;;;;;;16.08;100.00;101733.03;1970631;72;32879;-74
2021/07/08 00:56:15;;;;;;;9.17;7.77;;;;;;;16.02;100.00;101728.62;1970755;72;30943;-78
2021/07/08 01:01:47;;;;;;;10.63;7.80;;;;;;;15.96;100.00;101731.23;1970751;72;33471;-74
2021/07/08 01:07:13;;;;;;;13.27;9.13;;;;;;;15.82;100.00;101743.73;1970505;73;33527;-74
2021/07/08 01:12:38;;;;;;;9.73;8.73;;;;;;;15.80;100.00;101741.22;1970516;72;33028;-78
2021/07/08 01:18:05;;;;;;;9.97;8.90;;;;;;;15.88;100.00;101741.13;1970686;72;33398;-78
2021/07/08 01:23:30;;;;;;;11.33;9.03;;;;;;;15.72;100.00;101751.69;1970546;72;30986;-78
2021/07/08 01:28:55;;;;;;;14.83;11.00;;;;;;;15.69;100.00;101754.25;1954494;72;28151;-73
2021/07/08 01:34:21;;;;;;;12.30;9.80;;;;;;;15.63;100.00;101754.87;1970604;72;33535;-73
2021/07/08 01:39:46;;;;;;;11.63;9.87;;;;;;;15.64;100.00;101765.50;1970687;72;33104;-74
2021/07/08 01:45:14;;;;;;;11.93;9.03;;;;;;;15.63;100.00;101763.27;1970494;73;32980;-74
2021/07/08 01:50:40;;;;;;;11.87;10.40;;;;;;;15.73;100.00;101768.77;1970720;72;33603;-78
2021/07/08 01:56:05;;;;;;;13.43;9.80;;;;;;;15.76;100.00;101770.97;1970569;72;33406;-74
2021/07/08 02:01:30;;;;;;;14.93;9.40;;;;;;;15.82;100.00;101775.39;1970661;72;33097;-74
2021/07/08 02:06:54;;;;;;;10.37;9.27;;;;;;;15.87;100.00;101775.90;1970556;72;33509;-78
2021/07/08 02:12:18;;;;;;;13.17;9.60;;;;;;;15.88;100.00;101774.74;1970547;72;32991;-77
2021/07/08 02:17:44;;;;;;;15.17;11.20;;;;;;;15.93;100.00;101779.73;1970652;73;32952;-74
2021/07/08 02:23:10;;;;;;;13.87;10.27;;;;;;;15.93;100.00;101783.94;1970835;72;33430;-78
2021/07/08 02:28:35;;;;;;;14.73;10.50;;;;;;;16.02;100.00;101777.66;1970392;73;33104;-78
2021/07/08 02:34:00;;;;;;;12.10;9.50;;;;;;;15.97;100.00;101777.72;1970389;72;32957;-74
2021/07/08 02:39:24;;;;;;;15.40;10.27;;;;;;;16.04;100.00;101779.05;1970715;72;32964;-78
2021/07/08 02:44:49;;;;;;;14.03;9.93;;;;;;;16.10;100.00;101772.23;1970693;73;32955;-78
2021/07/08 02:50:15;;;;;;;14.60;10.50;;;;;;;16.15;100.00;101781.98;1970498;72;32919;-78
2021/07/08 02:55:41;;;;;;;13.83;9.87;;;;;;;16.14;100.00;101790.67;1970499;72;32952;-75
2021/07/08 03:01:06;;;;;;;13.13;10.10;;;;;;;16.20;100.00;101783.32;1970473;73;33044;-78
2021/07/08 03:06:30;;;;;;;13.27;10.10;;;;;;;16.11;100.00;101780.08;1970394;72;33034;-75
2021/07/08 03:11:55;;;;;;;13.17;10.10;;;;;;;16.15;100.00;101784.78;1970409;72;32923;-76
2021/07/08 03:17:19;;;;;;;13.33;10.40;;;;;;;16.21;100.00;101793.41;1970632;72;33465;-75
2021/07/08 03:22:45;;;;;;;14.33;10.50;;;;;;;16.12;100.00;101792.96;1935806;74;33123;-74
2021/07/08 03:28:10;;;;;;;13.80;11.13;;;;;;;16.10;100.00;101799.42;1970620;73;33469;-78
2021/07/08 03:33:34;;;;;;;13.03;11.00;;;;;;;16.10;100.00;101801.66;1970778;72;32880;-78
2021/07/08 03:38:59;;;;;;;15.57;11.03;;;;;;;16.14;100.00;101801.89;1870274;77;33294;-74
2021/07/08 03:44:23;;;;;;;15.77;11.43;;;;;;;16.14;100.00;101814.51;1970523;73;31080;-74
2021/07/08 03:49:48;;;;;;;15.50;10.60;;;;;;;16.18;100.00;101808.00;1970792;72;33024;-74
2021/07/08 03:55:15;;;;;;;15.77;11.13;;;;;;;16.23;100.00;101800.94;1970646;72;30995;-74
2021/07/08 04:00:42;;;;;;;12.73;11.37;;;;;;;16.08;100.00;101810.95;1960201;73;39496;-74
2021/07/08 04:06:08;;;;;;;17.43;11.50;;;;;;;16.04;100.00;101814.09;1970648;73;30949;-78
2021/07/08 04:11:36;;;;;;;14.47;10.90;;;;;;;16.07;100.00;101815.44;1970856;72;31007;-74
2021/07/08 04:17:00;;;;;;;12.97;10.97;;;;;;;15.98;100.00;101829.84;1970950;72;31536;-74
2021/07/08 04:22:24;;;;;;;14.20;10.23;;;;;;;15.98;100.00;101836.84;1970428;72;33103;-78
2021/07/08 04:27:49;;;;;;;12.97;11.13;;;;;;;16.04;100.00;101838.47;1970425;73;33118;-73
2021/07/08 04:33:15;;;;;;;12.60;10.30;;;;;;;16.04;100.00;101841.27;1970588;72;32937;-74
2021/07/08 04:38:41;;;;;;;13.80;10.47;;;;;;;16.08;100.00;101845.98;1970558;73;32907;-74
2021/07/08 04:44:06;;;;;;;14.00;10.87;;;;;;;16.06;100.00;101850.20;1970457;73;33044;-79
2021/07/08 04:49:30;;;;;;;15.83;10.03;;;;;;;16.10;100.00;101848.47;1970457;73;33617;-78
2021/07/08 04:54:55;;;;;;;14.57;9.90;;;;;;;16.15;100.00;101849.82;1970310;73;33058;-78
2021/07/08 05:00:21;;;;;;;12.70;9.97;;;;;;;16.17;100.00;101848.38;1970865;72;33034;-78
2021/07/08 05:05:47;;;;;;;14.00;10.60;;;;;;;16.12;100.00;101865.28;1970469;72;33045;-74
2021/07/08 05:11:11;;;;;;;13.73;10.40;;;;;;;16.14;100.00;101863.56;1970814;72;30965;-72
2021/07/08 05:16:35;;;;;;;14.73;10.23;;;;;;;16.22;100.00;101865.70;1970645;72;33056;-73
2021/07/08 05:22:01;;;;;;;13.13;10.07;;;;;;;16.20;100.00;101875.84;1960374;71;32908;-78
2021/07/08 05:27:25;;;;;;;14.43;10.27;;;;;;;16.28;100.00;101879.95;1970517;73;33519;-76
2021/07/08 05:32:50;;;;;;;16.83;9.77;;;;;;;16.29;100.00;101878.82;1970443;73;32934;-73
2021/07/08 05:38:14;;;;;;;15.47;10.40;;;;;;;16.38;100.00;101885.44;1970563;72;33370;-75
2021/07/08 05:43:38;;;;;;;12.27;9.43;;;;;;;16.39;100.00;101896.34;1970622;72;30995;-74
2021/07/08 05:49:03;;;;;;;11.17;8.67;;;;;;;16.45;100.00;101901.89;1970409;72;30969;-74
2021/07/08 05:54:28;;;;;;;14.57;9.20;;;;;;;16.36;100.00;101903.95;1970743;72;30994;-77
2021/07/08 05:59:54;;;;;;;10.20;9.10;;;;;;;16.44;100.00;101910.03;1970563;73;33016;-71
2021/07/08 06:05:18;;;;;;;13.63;9.13;;;;;;;16.49;100.00;101929.61;1970694;73;33410;-71
2021/07/08 06:10:43;;;;;;;12.43;9.63;;;;;;;16.54;100.00;101926.19;1970507;72;33026;-73
2021/07/08 06:16:08;;;;;;;12.40;9.50;;;;;;;16.60;100.00;101933.42;1970426;72;31550;-73
2021/07/08 06:21:33;;;;;;;12.30;9.50;;;;;;;16.70;100.00;101938.91;1952679;72;31034;-75
2021/07/08 06:26:57;;;;;;;11.43;9.40;;;;;;;16.75;100.00;101947.84;1970582;72;34162;-72
2021/07/08 06:32:21;;;;;;;16.07;9.37;;;;;;;16.92;100.00;101941.72;1970479;73;30985;-74
2021/07/08 06:37:46;;;;;;;15.27;9.47;;;;;;;17.13;100.00;101952.94;1970497;72;33019;-72
2021/07/08 06:43:13;;;;;;;11.30;8.30;;;;;;;17.53;100.00;101950.09;1970570;72;30922;-71
2021/07/08 06:48:37;;;;;;;12.80;8.73;;;;;;;17.78;100.00;101955.32;1970530;72;31098;-73
2021/07/08 06:54:02;;;;;;;10.53;7.17;;;;;;;17.71;100.00;101952.88;1970639;72;31107;-76
2021/07/08 06:59:27;;;;;;;9.60;7.43;;;;;;;17.62;100.00;101951.94;1970527;72;31034;-74
2021/07/08 07:04:51;;;;;;;10.97;7.70;;;;;;;17.81;100.00;101956.10;1970393;72;30985;-76
2021/07/08 07:10:16;;;;;;;9.27;7.20;;;;;;;17.81;100.00;101957.51;1970553;73;31147;-76
2021/07/08 07:15:41;;;;;;;10.20;7.40;;;;;;;17.83;100.00;101967.05;1970673;72;33479;-75
2021/07/08 07:21:09;;;;;;;10.23;6.53;;;;;;;18.00;100.00;101952.69;1958091;73;31679;-75
2021/07/08 07:26:31;;;;;;;7.33;5.97;;;;;;;18.32;100.00;101959.39;1970737;72;30931;-74
2021/07/08 07:31:55;;;;;;;8.07;6.47;;;;;;;18.24;100.00;101948.30;1970485;73;31146;-73
2021/07/08 07:37:20;;;;;;;7.77;5.83;;;;;;;18.22;100.00;101953.41;1970634;73;32909;-73
2021/07/08 07:42:44;;;;;;;8.17;6.27;;;;;;;18.28;100.00;101959.76;1970722;72;31374;-72
2021/07/08 07:48:11;;;;;;;6.90;5.53;;;;;;;18.45;100.00;101955.77;1970873;72;31491;-72
2021/07/08 07:53:35;;;;;;;6.37;5.73;;;;;;;18.71;100.00;101954.71;1970811;72;31115;-75
2021/07/08 07:59:00;;;;;;;6.17;5.27;;;;;;;19.33;100.00;101953.91;1970455;72;31021;-71
2021/07/08 08:04:28;;;;;;;6.83;5.57;;;;;;;18.91;100.00;101956.52;1970825;72;31497;-75
2021/07/08 08:09:50;;;;;;;6.83;5.10;;;;;;;18.70;100.00;101969.95;1970566;72;31001;-72
2021/07/08 08:15:17;;;;;;;7.37;5.17;;;;;;;18.81;100.00;101966.61;1970326;73;31187;-72
2021/07/08 08:20:44;;;;;;;6.17;5.40;;;;;;;19.11;100.00;101974.97;1967129;71;30974;-75
2021/07/08 08:26:08;;;;;;;5.97;4.63;;;;;;;19.22;100.00;101969.92;1970734;72;31407;-71
2021/07/08 08:31:33;;;;;;;5.70;4.10;;;;;;;19.95;100.00;101960.55;1970546;73;30942;-75
2021/07/08 08:36:57;;;;;;;4.23;3.50;;;;;;;19.71;100.00;101954.41;1970375;73;30983;-74
2021/07/08 08:42:24;;;;;;;4.43;4.00;;;;;;;19.59;100.00;101955.57;1970531;72;30999;-75
2021/07/08 08:48:02;;;;;;;6.73;4.50;;;;;;;19.96;100.00;101941.64;1970648;72;31066;-75
2021/07/08 08:53:29;;;;;;;7.17;4.77;;;;;;;20.07;100.00;101940.20;1970604;72;31013;-72
2021/07/08 08:59:12;;;;;;;4.73;3.83;;;;;;;20.15;100.00;101943.66;1946255;74;31538;-71
2021/07/08 09:04:37;;;;;;;4.80;3.90;;;;;;;19.73;100.00;101942.80;1970542;73;30934;-73
2021/07/08 09:10:23;;;;;;;4.00;3.60;;;;;;;19.71;100.00;101946.53;1970689;73;33411;-73
2021/07/08 09:15:52;;;;;;;4.00;3.63;;;;;;;19.43;100.00;101952.27;1970566;72;33511;-76
2021/07/08 09:21:29;;;;;;;4.03;3.70;;;;;;;19.41;100.00;101947.51;1970379;72;33059;-72
2021/07/08 09:27:13;;;;;;;5.13;4.43;;;;;;;19.59;100.00;101954.16;1970401;72;31029;-71
2021/07/08 09:32:37;;;;;;;6.07;5.13;;;;;;;19.65;100.00;101956.25;1970451;73;31575;-75
2021/07/08 09:38:11;;;;;;;7.10;5.20;;;;;;;19.92;100.00;101950.50;1970241;73;33152;-72
2021/07/08 09:43:39;;;;;;;7.50;4.90;;;;;;;20.18;100.00;101953.48;1970840;72;30981;-75
2021/07/08 09:49:07;;;;;;;4.93;4.30;;;;;;;20.57;100.00;101958.36;1970572;72;31011;-71
2021/07/08 09:55:04;;;;;;;4.47;3.80;;;;;;;21.21;100.00;101946.84;1970396;73;31111;-75
2021/07/08 10:00:36;;;;;;;4.33;3.40;;;;;;;21.22;100.00;101948.52;1970579;73;30938;-73
2021/07/08 10:06:01;;;;;;;3.23;2.80;;;;;;;21.04;100.00;101951.02;1970459;72;30995;-75
2021/07/08 10:11:26;;;;;;;4.13;3.70;;;;;;;20.82;100.00;101942.91;1970753;72;31394;-75
2021/07/08 10:16:54;;;;;;;4.20;3.33;;;;;;;21.03;100.00;101947.36;1970713;72;33381;-75
2021/07/08 10:22:20;;;;;;;2.90;2.70;;;;;;;21.61;100.00;101948.34;1959179;71;33454;-72
2021/07/08 10:27:46;;;;;;;3.37;3.03;;;;;;;21.47;100.00;101944.88;1970382;72;30944;-75
2021/07/08 10:33:17;;;;;;;4.53;3.70;;;;;;;21.24;100.00;101948.42;1970847;73;31044;-76
2021/07/08 10:38:44;;;;;;;5.17;3.70;;;;;;;21.17;100.00;101952.91;1970793;73;31432;-76
2021/07/08 10:44:49;;;;;;;4.60;4.27;;;;;;;21.17;100.00;101957.98;1970352;73;30942;-75
2021/07/08 10:50:42;;;;;;;4.45;3.70;;;;;;;21.09;100.00;101961.59;1970633;72;30933;-76
2021/07/08 10:56:24;;;;;;;3.83;3.53;;;;;;;21.07;100.00;101951.19;1970566;72;30993;-74
2021/07/08 11:01:51;;;;;;;3.60;3.30;;;;;;;21.11;100.00;101950.78;1970599;72;31037;-72
2021/07/08 11:07:48;;;;;;;3.90;3.10;;;;;;;21.02;100.00;101951.92;1970854;73;31675;-72
2021/07/08 11:13:30;;;;;;;3.67;3.30;;;;;;;21.05;100.00;101962.58;1970489;72;31089;-76
2021/07/08 11:19:04;;;;;;;4.03;3.63;;;;;;;21.02;100.00;101964.05;1970501;72;30939;-75
2021/07/08 11:24:51;;;;;;;3.33;3.13;;;;;;;20.77;100.00;101968.48;1970376;72;30999;-72
2021/07/08 11:30:32;;;;;;;4.87;4.33;;;;;;;21.01;100.00;101967.23;1970646;72;30933;-72
2021/07/08 11:36:00;;;;;;;5.07;4.27;;;;;;;20.82;100.00;101972.57;1970398;73;30947;-75
2021/07/08 11:41:29;;;;;;;4.27;3.87;;;;;;;20.70;100.00;101980.84;1970544;72;31050;-73
2021/07/08 11:46:58;;;;;;;3.30;3.00;;;;;;;20.92;100.00;101970.61;1970681;72;33362;-75
2021/07/08 11:52:27;;;;;;;4.37;2.80;;;;;;;21.07;100.00;101963.91;1970460;73;31147;-75
2021/07/08 11:57:58;;;;;;;4.43;3.53;;;;;;;21.39;100.00;101956.17;1970533;72;31460;-75
2021/07/08 12:03:31;;;;;;;3.33;3.10;;;;;;;21.52;100.00;101955.19;1970729;73;31490;-75
2021/07/08 12:09:06;;;;;;;4.20;3.80;;;;;;;21.42;100.00;101952.10;1970371;73;31103;-71
2021/07/08 12:14:32;;;;;;;4.50;4.10;;;;;;;21.13;100.00;101958.39;1970818;72;31130;-72
2021/07/08 12:20:08;;;;;;;4.40;4.10;;;;;;;21.11;100.00;101966.90;1970327;72;31028;-73
2021/07/08 12:25:49;;;;;;;4.45;3.80;;;;;;;20.94;100.00;101964.03;1970518;72;30989;-75
2021/07/08 12:31:18;;;;;;;6.50;4.37;;;;;;;20.74;100.00;101966.31;1970623;73;31033;-74
2021/07/08 12:36:51;;;;;;;6.33;3.87;;;;;;;20.97;100.00;101954.89;1970584;73;31049;-73
2021/07/08 12:42:21;;;;;;;5.00;4.50;;;;;;;21.08;100.00;101966.98;1970800;73;31422;-72
2021/07/08 12:47:50;;;;;;;4.13;3.83;;;;;;;20.98;100.00;101974.92;1970653;73;31458;-73
2021/07/08 12:53:19;;;;;;;4.17;3.50;;;;;;;21.13;100.00;101970.27;1970527;73;30996;-73
2021/07/08 12:58:44;;;;;;;4.70;2.83;;;;;;;21.00;100.00;101974.03;1970909;72;31456;-74
2021/07/08 13:04:11;;;;;;;3.40;3.10;;;;;;;20.81;100.00;101973.72;1970501;72;32329;-72
2021/07/08 13:09:35;;;;;;;3.10;2.80;;;;;;;20.96;100.00;101982.34;1970743;73;31587;-75
2021/07/08 13:15:24;;;;;;;3.33;3.03;;;;;;;20.60;100.00;101987.34;1970478;72;30922;-75
2021/07/08 13:21:00;;;;;;;3.37;3.07;;;;;;;20.73;100.00;102001.93;1966054;71;31009;-76
2021/07/08 13:26:25;;;;;;;4.63;3.77;;;;;;;20.48;100.00;102011.11;1970547;73;31037;-73
2021/07/08 13:31:50;;;;;;;5.93;4.63;;;;;;;20.07;100.00;102031.89;1970533;73;31044;-75
2021/07/08 13:37:23;;;;;;;6.00;5.40;;;;;;;19.61;100.00;102039.22;1970635;73;30907;-72
2021/07/08 13:42:48;;;;;;;5.73;5.23;;;;;;;19.15;100.00;102059.67;1970802;73;31560;-76
2021/07/08 13:48:36;;;;;;;5.90;5.30;;;;;;;19.34;100.00;102063.22;1970584;72;33382;-72
2021/07/08 13:54:02;;;;;;;7.23;5.73;;;;;;;19.65;100.00;102067.03;1970463;73;30976;-73
2021/07/08 13:59:26;;;;;;;8.10;6.20;;;;;;;19.66;100.00;102080.56;1970673;72;31115;-75
2021/07/08 14:04:51;;;;;;;7.23;6.60;;;;;;;19.78;100.00;102079.43;1970679;72;31452;-72
2021/07/08 14:10:15;;;;;;;7.67;6.83;;;;;;;19.86;100.00;102079.50;1970549;72;30919;-75
2021/07/08 14:15:39;;;;;;;5.97;5.33;;;;;;;19.74;100.00;102077.83;1970726;72;31579;-75
2021/07/08 14:21:05;;;;;;;5.67;5.17;;;;;;;19.78;100.00;102076.61;1958566;72;30949;-75
2021/07/08 14:26:30;;;;;;;6.50;5.83;;;;;;;19.64;100.00;102071.00;1936901;74;31728;-72
2021/07/08 14:31:54;;;;;;;6.30;5.67;;;;;;;19.58;100.00;102064.40;1970530;73;30912;-75
2021/07/08 14:37:19;;;;;;;6.87;6.30;;;;;;;19.70;100.00;102075.38;1970405;73;30965;-71
2021/07/08 14:42:47;;;;;;;7.40;6.70;;;;;;;19.77;100.00;102071.54;1971007;72;31546;-72
2021/07/08 14:48:14;;;;;;;7.17;6.43;;;;;;;19.95;100.00;102069.14;1970665;73;31558;-75
2021/07/08 14:53:38;;;;;;;7.93;7.07;;;;;;;19.65;100.00;102068.44;1970566;72;31061;-73
2021/07/08 14:59:09;;;;;;;9.23;7.90;;;;;;;19.69;100.00;102067.23;1970601;73;31475;-71
2021/07/08 15:04:33;;;;;;;10.77;9.67;;;;;;;19.93;100.00;102070.05;1970593;73;33411;-71
2021/07/08 15:09:58;;;;;;;10.70;9.43;;;;;;;19.75;100.00;102072.45;1970468;72;31006;-75
2021/07/08 15:15:22;;;;;;;8.80;8.00;;;;;;;19.89;100.00;102077.48;1970429;72;31154;-74
2021/07/08 15:20:47;;;;;;;7.90;7.20;;;;;;;19.89;100.00;102076.64;1961967;72;31082;-74
2021/07/08 15:26:12;;;;;;;7.47;6.77;;;;;;;19.90;100.00;102077.72;1970625;72;31669;-71
2021/07/08 15:31:36;;;;;;;6.70;6.13;;;;;;;19.89;100.00;102075.23;1970581;72;31446;-74
2021/07/08 15:37:02;;;;;;;7.20;6.50;;;;;;;19.82;100.00;102063.54;1970872;72;31495;-74
2021/07/08 15:42:26;;;;;;;7.60;6.90;;;;;;;19.97;100.00;102066.84;1970430;73;31148;-75
2021/07/08 15:47:51;;;;;;;7.30;6.60;;;;;;;20.00;100.00;102060.56;1970641;72;30982;-76
2021/07/08 15:53:16;;;;;;;6.70;6.10;;;;;;;20.26;100.00;102059.92;1970475;73;31049;-73
2021/07/08 15:58:40;;;;;;;6.80;6.20;;;;;;;20.34;100.00;102056.34;1970534;73;31333;-71
2021/07/08 16:04:05;;;;;;;7.23;6.57;;;;;;;20.39;100.00;102057.64;1970477;72;30909;-72
2021/07/08 16:09:29;;;;;;;7.30;6.60;;;;;;;20.54;100.00;102060.64;1970675;72;30963;-71
2021/07/08 16:14:53;;;;;;;6.73;6.13;;;;;;;20.64;100.00;102064.01;1970534;73;31004;-72
2021/07/08 16:20:18;;;;;;;7.00;6.40;;;;;;;20.72;100.00;102063.80;1970569;71;30932;-73
2021/07/08 16:25:42;;;;;;;7.90;7.10;;;;;;;20.95;100.00;102066.83;1970809;72;32203;-77
2021/07/08 16:31:07;;;;;;;6.87;6.17;;;;;;;20.81;100.00;102054.79;1970626;73;31429;-72
2021/07/08 16:36:32;;;;;;;5.80;5.30;;;;;;;21.08;100.00;102047.52;1970547;73;31015;-72
2021/07/08 16:41:56;;;;;;;7.27;5.40;;;;;;;21.28;100.00;102041.86;1970899;72;31509;-75
2021/07/08 16:47:20;;;;;;;5.97;5.47;;;;;;;21.42;100.00;102030.42;1970841;73;31011;-75
2021/07/08 16:52:44;;;;;;;5.90;4.80;;;;;;;21.51;100.00;102033.52;1970317;72;30966;-75
2021/07/08 16:58:10;;;;;;;5.58;5.15;;;;;;;21.34;100.00;102042.81;1970869;72;30989;-72
2021/07/08 17:03:37;;;;;;;5.67;4.97;;;;;;;21.35;100.00;102034.55;1970665;72;30997;-72
2021/07/08 17:09:04;;;;;;;5.53;5.00;;;;;;;21.61;100.00;102039.41;1944612;74;31670;-77
2021/07/08 17:14:28;;;;;;;5.12;4.67;;;;;;;21.46;100.00;102028.02;1970784;72;31580;-72
2021/07/08 17:19:53;;;;;;;5.22;4.83;;;;;;;21.62;100.00;102026.37;1970679;73;30930;-75
2021/07/08 17:25:19;;;;;;;6.58;5.37;;;;;;;21.52;100.00;102015.38;1970901;72;31032;-75
2021/07/08 17:30:45;;;;;;;6.08;4.75;;;;;;;21.50;100.00;102010.64;1970829;72;30986;-73
2021/07/08 17:36:12;;;;;;;4.62;4.22;;;;;;;21.27;100.00;102017.58;1970582;72;30997;-76
2021/07/08 17:41:45;;;;;;;5.10;4.60;;;;;;;21.05;100.00;102024.13;1970899;72;31495;-75
2021/07/08 17:47:09;;;;;;;4.93;4.43;;;;;;;20.87;100.00;102025.25;1970729;73;31475;-74
2021/07/08 17:52:33;;;;;;;5.47;4.97;;;;;;;20.90;100.00;102031.66;1970965;73;31486;-78
2021/07/08 17:57:59;;;;;;;6.10;5.17;;;;;;;21.11;100.00;102027.08;1970632;73;31563;-81
2021/07/08 18:03:26;;;;;;;5.70;5.17;;;;;;;21.02;100.00;102029.03;1970694;72;31528;-73
2021/07/08 18:08:50;;;;;;;4.78;4.37;;;;;;;21.26;100.00;102031.48;1970904;72;31060;-75
2021/07/08 18:14:16;;;;;;;6.05;4.62;;;;;;;20.79;100.00;102039.57;1970933;73;30953;-81
2021/07/08 18:19:41;;;;;;;5.00;4.60;;;;;;;20.78;100.00;102038.50;1970444;73;31003;-74
2021/07/08 18:25:09;;;;;;;5.60;5.10;;;;;;;20.81;100.00;102046.31;1970682;72;31058;-72
2021/07/08 18:30:35;;;;;;;5.65;5.15;;;;;;;20.81;100.00;102044.33;1970768;72;30942;-75
2021/07/08 18:36:00;;;;;;;5.43;4.93;;;;;;;20.68;100.00;102042.44;1970958;72;31462;-72
2021/07/08 18:41:25;;;;;;;5.97;5.37;;;;;;;20.65;100.00;102045.08;1970688;72;30938;-75
2021/07/08 18:46:49;;;;;;;5.77;5.27;;;;;;;20.61;100.00;102047.73;1970694;72;31059;-72
2021/07/08 18:52:14;;;;;;;7.08;5.08;;;;;;;20.40;100.00;102046.03;1970892;72;30938;-72
2021/07/08 18:57:38;;;;;;;5.33;4.83;;;;;;;20.44;100.00;102047.05;1970667;72;30932;-74
2021/07/08 19:03:05;;;;;;;5.93;5.33;;;;;;;20.36;100.00;102045.59;1970518;73;31490;-71
2021/07/08 19:08:29;;;;;;;6.20;5.57;;;;;;;20.30;100.00;102048.27;1970714;73;31030;-75
2021/07/08 19:13:53;;;;;;;6.07;5.30;;;;;;;20.30;100.00;102051.09;1970500;73;30914;-73
2021/07/08 19:19:18;;;;;;;6.10;5.43;;;;;;;20.17;100.00;102053.38;1970666;72;30983;-76
2021/07/08 19:24:44;;;;;;;6.07;5.47;;;;;;;20.08;100.00;102059.53;1970743;72;30950;-73
2021/07/08 19:30:13;;;;;;;6.33;5.73;;;;;;;20.09;100.00;102057.80;1972218;72;30976;-74
2021/07/08 19:35:44;;;;;;;6.37;5.77;;;;;;;20.05;100.00;102055.38;1972018;73;30953;-74
2021/07/08 19:41:08;;;;;;;7.43;6.17;;;;;;;20.03;100.00;102069.52;1970555;72;31749;-75
2021/07/08 19:46:32;;;;;;;7.47;6.67;;;;;;;19.92;100.00;102072.61;1970537;73;33312;-78
2021/07/08 19:52:16;;;;;;;7.50;6.70;;;;;;;19.88;100.00;102072.98;1946290;74;31487;-76
2021/07/08 19:57:41;;;;;;;8.37;6.93;;;;;;;19.73;100.00;102078.97;1970526;72;31138;-77
2021/07/08 20:03:08;;;;;;;9.40;7.50;;;;;;;19.61;100.00;102088.55;1970697;72;31544;-74
2021/07/08 20:08:32;;;;;;;9.17;8.17;;;;;;;19.42;100.00;102099.95;1970418;73;31022;-74
2021/07/08 20:13:57;;;;;;;10.03;8.30;;;;;;;19.42;100.00;102101.36;1970761;72;31506;-74
2021/07/08 20:19:21;;;;;;;7.63;6.83;;;;;;;19.07;100.00;102114.76;1970964;72;30954;-76
2021/07/08 20:24:44;;;;;;;10.80;7.30;;;;;;;18.81;100.00;102124.84;1970633;72;30984;-74
2021/07/08 20:30:11;;;;;;;8.00;7.20;;;;;;;18.62;100.00;102133.33;1970632;73;31061;-71
2021/07/08 20:35:36;;;;;;;12.77;8.70;;;;;;;18.43;100.00;102136.17;1970583;73;30926;-72
2021/07/08 20:41:01;;;;;;;11.17;9.47;;;;;;;18.40;100.00;102135.95;1970266;73;30983;-73
2021/07/08 20:46:26;;;;;;;14.60;9.97;;;;;;;18.62;100.00;102151.63;1970809;72;31010;-74
2021/07/08 20:51:51;;;;;;;12.30;10.33;;;;;;;18.42;100.00;102165.44;1970415;72;31478;-75
2021/07/08 20:57:15;;;;;;;15.23;11.10;;;;;;;18.48;100.00;102163.39;1970678;72;32389;-73
2021/07/08 21:02:41;;;;;;;15.20;11.63;;;;;;;18.42;100.00;102168.83;1970294;72;31080;-74
2021/07/08 21:08:08;;;;;;;17.47;13.07;;;;;;;18.31;100.00;102175.77;1970784;72;31087;-73
2021/07/08 21:13:32;;;;;;;15.30;12.47;;;;;;;18.16;100.00;102173.45;1970801;72;31469;-72
2021/07/08 21:18:56;;;;;;;12.93;11.37;;;;;;;17.94;100.00;102183.05;1970556;73;30948;-70
2021/07/08 21:24:40;;;;;;;16.37;12.07;;;;;;;17.95;100.00;102188.09;1931615;74;31241;-71
2021/07/08 21:30:24;;;;;;;15.87;12.07;;;;;;;17.99;100.00;102185.79;1946227;74;31656;-71
2021/07/08 21:35:49;;;;;;;10.73;9.63;;;;;;;17.93;100.00;102190.36;1970345;72;30962;-72
2021/07/08 21:41:21;;;;;;;12.20;9.83;;;;;;;17.38;100.00;102195.53;1970455;72;33418;-72
2021/07/08 21:46:41;;;;;;;14.47;10.47;;;;;;;17.07;100.00;102211.86;1970555;73;31086;-78
2021/07/08 21:52:06;;;;;;;13.47;10.43;;;;;;;17.20;100.00;102212.57;1970263;72;31083;-76
2021/07/08 21:57:34;;;;;;;13.47;11.17;;;;;;;16.98;100.00;102213.66;1970617;72;31013;-75
2021/07/08 22:03:03;;;;;;;14.23;12.37;;;;;;;17.08;100.00;102216.34;1970450;72;31040;-77
2021/07/08 22:08:30;;;;;;;16.33;11.87;;;;;;;16.97;100.00;102223.77;1971988;73;30977;-76
2021/07/08 22:13:57;;;;;;;15.03;12.03;;;;;;;16.99;100.00;102222.89;1970647;72;31119;-74
2021/07/08 22:19:21;;;;;;;19.77;13.37;;;;;;;16.90;100.00;102225.49;1970643;72;31460;-78
2021/07/08 22:24:48;;;;;;;14.50;12.03;;;;;;;16.93;100.00;102231.95;1970760;72;31057;-78
2021/07/08 22:30:14;;;;;;;12.63;11.30;;;;;;;16.91;100.00;102220.72;1970814;73;31489;-74
2021/07/08 22:35:39;;;;;;;15.27;11.83;;;;;;;16.82;100.00;102227.53;1970405;73;31013;-77
2021/07/08 22:41:04;;;;;;;16.83;12.30;;;;;;;16.85;100.00;102225.56;1970464;72;31029;-76
2021/07/08 22:46:28;;;;;;;13.10;11.37;;;;;;;16.99;100.00;102229.34;1970326;73;31101;-77
2021/07/08 22:51:52;;;;;;;14.73;11.60;;;;;;;16.86;100.00;102232.83;1970468;72;31022;-77
2021/07/08 22:57:16;;;;;;;12.97;10.63;;;;;;;16.79;100.00;102235.98;1970434;73;33527;-74
2021/07/08 23:02:41;;;;;;;13.20;10.53;;;;;;;16.81;100.00;102239.92;1970573;73;33464;-77
2021/07/08 23:08:08;;;;;;;16.13;10.50;;;;;;;16.81;100.00;102249.73;1970472;73;31005;-74
2021/07/08 23:13:32;;;;;;;14.83;11.30;;;;;;;16.96;100.00;102243.14;1970127;73;31027;-74
2021/07/08 23:18:57;;;;;;;14.40;11.37;;;;;;;17.01;100.00;102241.70;1970495;72;33002;-74
2021/07/08 23:24:21;;;;;;;16.93;11.67;;;;;;;17.08;100.00;102237.41;1970677;72;32911;-75
2021/07/08 23:29:45;;;;;;;14.83;11.67;;;;;;;17.08;100.00;102229.55;1970208;72;33464;-77
2021/07/08 23:35:12;;;;;;;13.23;10.50;;;;;;;17.23;100.00;102223.23;1970497;72;32941;-74
2021/07/08 23:40:37;;;;;;;16.23;11.20;;;;;;;17.19;100.00;102219.34;1970548;72;31638;-75
